Terminal Aerodrome Forecast
Issued by NWS

Home | Current Version | Previous Version | Graphics & Text | Print | Product List | Glossary On
Versions: 1 2 3 4 5 6 7 8 9 10 11 12 13 14 15 16 17 18
709
FTUS43 KPAH 212141 AAA
TAFCGI
TAF AMD
KCGI 212141Z 2122/2218 02013KT P6SM VCSH BKN015
     FM212230 02012KT 2SM RA BR FEW009 BKN015
     FM212330 02011KT 6SM -SHRA BKN015
     FM220200 03015KT 5SM -SHRA BR SCT005 OVC012=

USA.gov is the U.S. government's official web portal to all federal, state and local government web resources and services.